sensor_id;sensor_type;location;lat;lon;timestamp;P1;durP1;ratioP1;P2;durP2;ratioP2
970;SDS011;28939;45.540;-122.632;2022-09-09T00:01:25;1.27;;;0.80;;
970;SDS011;28939;45.540;-122.632;2022-09-09T00:04:03;1.30;;;1.20;;
970;SDS011;28939;45.540;-122.632;2022-09-09T00:06:45;1.20;;;0.60;;
970;SDS011;28939;45.540;-122.632;2022-09-09T00:09:25;1.13;;;1.03;;
970;SDS011;28939;45.540;-122.632;2022-09-09T00:12:00;1.30;;;0.90;;
970;SDS011;28939;45.540;-122.632;2022-09-09T00:14:35;1.17;;;0.67;;
970;SDS011;28939;45.540;-122.632;2022-09-09T00:17:12;0.73;;;0.73;;
970;SDS011;28939;45.540;-122.632;2022-09-09T00:19:56;1.23;;;0.80;;
970;SDS011;28939;45.540;-122.632;2022-09-09T00:22:33;0.67;;;0.67;;
970;SDS011;28939;45.540;-122.632;2022-09-09T00:25:08;1.07;;;0.93;;
970;SDS011;28939;45.540;-122.632;2022-09-09T00:27:45;3.70;;;1.20;;
970;SDS011;28939;45.540;-122.632;2022-09-09T00:30:17;1.10;;;1.00;;
970;SDS011;28939;45.540;-122.632;2022-09-09T00:32:50;1.03;;;0.80;;
970;SDS011;28939;45.540;-122.632;2022-09-09T00:35:26;2.33;;;1.13;;
970;SDS011;28939;45.540;-122.632;2022-09-09T00:38:03;1.47;;;0.63;;
970;SDS011;28939;45.540;-122.632;2022-09-09T00:40:45;1.20;;;0.83;;
970;SDS011;28939;45.540;-122.632;2022-09-09T00:43:23;1.20;;;1.10;;
970;SDS011;28939;45.540;-122.632;2022-09-09T00:46:16;0.70;;;0.70;;
970;SDS011;28939;45.540;-122.632;2022-09-09T00:48:58;2.20;;;1.20;;
970;SDS011;28939;45.540;-122.632;2022-09-09T00:51:41;0.77;;;0.77;;
970;SDS011;28939;45.540;-122.632;2022-09-09T00:54:23;1.00;;;0.90;;
970;SDS011;28939;45.540;-122.632;2022-09-09T00:57:10;0.60;;;0.60;;
970;SDS011;28939;45.540;-122.632;2022-09-09T00:59:47;0.83;;;0.80;;
970;SDS011;28939;45.540;-122.632;2022-09-09T01:02:26;1.57;;;0.90;;
970;SDS011;28939;45.540;-122.632;2022-09-09T01:05:00;0.80;;;0.80;;
970;SDS011;28939;45.540;-122.632;2022-09-09T01:07:36;0.80;;;0.63;;
970;SDS011;28939;45.540;-122.632;2022-09-09T01:10:11;1.03;;;0.90;;
970;SDS011;28939;45.540;-122.632;2022-09-09T01:12:50;0.90;;;0.90;;
970;SDS011;28939;45.540;-122.632;2022-09-09T01:15:24;2.40;;;1.20;;
970;SDS011;28939;45.540;-122.632;2022-09-09T01:17:59;3.53;;;1.23;;
970;SDS011;28939;45.540;-122.632;2022-09-09T01:20:36;1.40;;;1.10;;
970;SDS011;28939;45.540;-122.632;2022-09-09T01:23:25;1.97;;;1.27;;
970;SDS011;28939;45.540;-122.632;2022-09-09T01:26:19;1.27;;;1.17;;
970;SDS011;28939;45.540;-122.632;2022-09-09T01:28:55;1.33;;;1.10;;
970;SDS011;28939;45.540;-122.632;2022-09-09T01:31:27;3.30;;;0.80;;
970;SDS011;28939;45.540;-122.632;2022-09-09T01:34:00;1.17;;;1.07;;
970;SDS011;28939;45.540;-122.632;2022-09-09T01:36:32;0.90;;;0.80;;
970;SDS011;28939;45.540;-122.632;2022-09-09T01:39:09;2.70;;;1.87;;
970;SDS011;28939;45.540;-122.632;2022-09-09T01:41:42;4.30;;;2.70;;
970;SDS011;28939;45.540;-122.632;2022-09-09T01:44:13;2.90;;;2.00;;
970;SDS011;28939;45.540;-122.632;2022-09-09T01:46:45;3.10;;;2.50;;
970;SDS011;28939;45.540;-122.632;2022-09-09T01:49:16;5.10;;;2.93;;
970;SDS011;28939;45.540;-122.632;2022-09-09T01:51:48;0.90;;;0.70;;
970;SDS011;28939;45.540;-122.632;2022-09-09T01:54:21;0.93;;;0.80;;
970;SDS011;28939;45.540;-122.632;2022-09-09T01:56:59;0.90;;;0.90;;
970;SDS011;28939;45.540;-122.632;2022-09-09T01:59:44;1.10;;;1.00;;
970;SDS011;28939;45.540;-122.632;2022-09-09T02:02:23;1.00;;;1.00;;
970;SDS011;28939;45.540;-122.632;2022-09-09T02:05:02;2.17;;;1.00;;
970;SDS011;28939;45.540;-122.632;2022-09-09T02:07:42;1.40;;;1.03;;
970;SDS011;28939;45.540;-122.632;2022-09-09T02:10:17;0.60;;;0.60;;
970;SDS011;28939;45.540;-122.632;2022-09-09T02:12:53;0.90;;;0.90;;
970;SDS011;28939;45.540;-122.632;2022-09-09T02:15:32;1.17;;;1.07;;
970;SDS011;28939;45.540;-122.632;2022-09-09T02:18:07;1.20;;;0.87;;
970;SDS011;28939;45.540;-122.632;2022-09-09T02:20:39;2.70;;;1.23;;
970;SDS011;28939;45.540;-122.632;2022-09-09T02:23:12;0.83;;;0.67;;
970;SDS011;28939;45.540;-122.632;2022-09-09T02:25:45;0.90;;;0.90;;
970;SDS011;28939;45.540;-122.632;2022-09-09T02:28:20;1.33;;;1.23;;
970;SDS011;28939;45.540;-122.632;2022-09-09T02:30:55;1.17;;;0.97;;
970;SDS011;28939;45.540;-122.632;2022-09-09T02:33:26;0.73;;;0.73;;
970;SDS011;28939;45.540;-122.632;2022-09-09T02:36:00;2.30;;;1.40;;
970;SDS011;28939;45.540;-122.632;2022-09-09T02:38:35;1.30;;;1.03;;
970;SDS011;28939;45.540;-122.632;2022-09-09T02:41:10;1.10;;;1.00;;
970;SDS011;28939;45.540;-122.632;2022-09-09T02:43:42;1.10;;;1.00;;
970;SDS011;28939;45.540;-122.632;2022-09-09T02:46:18;1.30;;;1.20;;
970;SDS011;28939;45.540;-122.632;2022-09-09T02:48:59;4.07;;;1.40;;
970;SDS011;28939;45.540;-122.632;2022-09-09T02:51:35;2.00;;;1.63;;
970;SDS011;28939;45.540;-122.632;2022-09-09T02:54:15;2.10;;;1.90;;
970;SDS011;28939;45.540;-122.632;2022-09-09T02:56:53;2.43;;;1.60;;
970;SDS011;28939;45.540;-122.632;2022-09-09T02:59:25;2.30;;;1.60;;
970;SDS011;28939;45.540;-122.632;2022-09-09T03:01:56;2.13;;;1.70;;
970;SDS011;28939;45.540;-122.632;2022-09-09T03:04:27;2.20;;;1.33;;
970;SDS011;28939;45.540;-122.632;2022-09-09T03:06:59;1.67;;;1.43;;
970;SDS011;28939;45.540;-122.632;2022-09-09T03:09:31;1.23;;;1.13;;
970;SDS011;28939;45.540;-122.632;2022-09-09T03:12:02;1.70;;;1.60;;
970;SDS011;28939;45.540;-122.632;2022-09-09T03:14:35;1.27;;;1.17;;
970;SDS011;28939;45.540;-122.632;2022-09-09T03:17:06;1.60;;;1.50;;
970;SDS011;28939;45.540;-122.632;2022-09-09T03:19:36;1.40;;;1.30;;
970;SDS011;28939;45.540;-122.632;2022-09-09T03:22:08;3.20;;;1.60;;
970;SDS011;28939;45.540;-122.632;2022-09-09T03:24:41;2.27;;;2.07;;
970;SDS011;28939;45.540;-122.632;2022-09-09T03:27:11;1.73;;;1.10;;
970;SDS011;28939;45.540;-122.632;2022-09-09T03:29:44;1.93;;;1.40;;
970;SDS011;28939;45.540;-122.632;2022-09-09T03:32:17;1.67;;;1.33;;
970;SDS011;28939;45.540;-122.632;2022-09-09T03:34:50;1.40;;;1.20;;
970;SDS011;28939;45.540;-122.632;2022-09-09T03:37:21;1.20;;;1.20;;
970;SDS011;28939;45.540;-122.632;2022-09-09T03:39:52;2.00;;;1.60;;
970;SDS011;28939;45.540;-122.632;2022-09-09T03:42:23;0.93;;;0.80;;
970;SDS011;28939;45.540;-122.632;2022-09-09T03:44:56;1.30;;;1.20;;
970;SDS011;28939;45.540;-122.632;2022-09-09T03:47:27;1.50;;;1.23;;
970;SDS011;28939;45.540;-122.632;2022-09-09T03:49:57;1.47;;;1.17;;
970;SDS011;28939;45.540;-122.632;2022-09-09T03:52:28;1.37;;;1.17;;
970;SDS011;28939;45.540;-122.632;2022-09-09T03:54:59;1.53;;;1.40;;
970;SDS011;28939;45.540;-122.632;2022-09-09T03:57:29;1.20;;;1.10;;
970;SDS011;28939;45.540;-122.632;2022-09-09T04:00:04;1.17;;;1.07;;
970;SDS011;28939;45.540;-122.632;2022-09-09T04:02:37;0.90;;;0.90;;
970;SDS011;28939;45.540;-122.632;2022-09-09T04:05:08;1.27;;;1.07;;
970;SDS011;28939;45.540;-122.632;2022-09-09T04:07:39;1.20;;;1.07;;
970;SDS011;28939;45.540;-122.632;2022-09-09T04:10:10;1.30;;;0.90;;
970;SDS011;28939;45.540;-122.632;2022-09-09T04:12:43;0.83;;;0.60;;
970;SDS011;28939;45.540;-122.632;2022-09-09T04:15:17;0.90;;;0.90;;
970;SDS011;28939;45.540;-122.632;2022-09-09T04:17:47;1.87;;;1.20;;
970;SDS011;28939;45.540;-122.632;2022-09-09T04:20:18;1.10;;;0.87;;
970;SDS011;28939;45.540;-122.632;2022-09-09T04:22:49;1.10;;;0.80;;
970;SDS011;28939;45.540;-122.632;2022-09-09T04:25:20;0.80;;;0.80;;
970;SDS011;28939;45.540;-122.632;2022-09-09T04:27:53;1.10;;;0.80;;
970;SDS011;28939;45.540;-122.632;2022-09-09T04:30:25;1.00;;;0.90;;
970;SDS011;28939;45.540;-122.632;2022-09-09T04:32:56;1.10;;;0.97;;
970;SDS011;28939;45.540;-122.632;2022-09-09T04:35:27;1.80;;;0.87;;
970;SDS011;28939;45.540;-122.632;2022-09-09T04:37:58;0.63;;;0.63;;
970;SDS011;28939;45.540;-122.632;2022-09-09T04:40:30;1.40;;;0.57;;
970;SDS011;28939;45.540;-122.632;2022-09-09T04:43:01;2.30;;;0.73;;
970;SDS011;28939;45.540;-122.632;2022-09-09T04:45:37;0.70;;;0.70;;
970;SDS011;28939;45.540;-122.632;2022-09-09T04:48:08;0.87;;;0.80;;
970;SDS011;28939;45.540;-122.632;2022-09-09T04:50:40;1.57;;;0.60;;
970;SDS011;28939;45.540;-122.632;2022-09-09T04:53:11;0.50;;;0.50;;
970;SDS011;28939;45.540;-122.632;2022-09-09T04:55:41;2.00;;;0.50;;
970;SDS011;28939;45.540;-122.632;2022-09-09T04:58:12;3.33;;;0.90;;
970;SDS011;28939;45.540;-122.632;2022-09-09T05:00:47;0.70;;;0.67;;
970;SDS011;28939;45.540;-122.632;2022-09-09T05:03:18;0.63;;;0.60;;
970;SDS011;28939;45.540;-122.632;2022-09-09T05:05:49;1.30;;;0.50;;
970;SDS011;28939;45.540;-122.632;2022-09-09T05:08:20;1.70;;;0.60;;
970;SDS011;28939;45.540;-122.632;2022-09-09T05:10:51;1.20;;;0.70;;
970;SDS011;28939;45.540;-122.632;2022-09-09T05:13:22;3.23;;;0.63;;
970;SDS011;28939;45.540;-122.632;2022-09-09T05:15:55;2.57;;;0.90;;
970;SDS011;28939;45.540;-122.632;2022-09-09T05:18:26;0.80;;;0.50;;
970;SDS011;28939;45.540;-122.632;2022-09-09T05:20:58;0.80;;;0.67;;
970;SDS011;28939;45.540;-122.632;2022-09-09T05:23:29;1.33;;;0.60;;
970;SDS011;28939;45.540;-122.632;2022-09-09T05:26:01;1.07;;;0.50;;
970;SDS011;28939;45.540;-122.632;2022-09-09T05:28:34;1.07;;;0.93;;
970;SDS011;28939;45.540;-122.632;2022-09-09T05:31:07;1.07;;;0.60;;
970;SDS011;28939;45.540;-122.632;2022-09-09T05:33:40;0.90;;;0.50;;
970;SDS011;28939;45.540;-122.632;2022-09-09T05:36:13;1.70;;;0.57;;
970;SDS011;28939;45.540;-122.632;2022-09-09T05:38:45;0.87;;;0.70;;
970;SDS011;28939;45.540;-122.632;2022-09-09T05:41:16;1.90;;;0.70;;
970;SDS011;28939;45.540;-122.632;2022-09-09T05:43:47;0.80;;;0.80;;
970;SDS011;28939;45.540;-122.632;2022-09-09T05:46:20;1.33;;;0.93;;
970;SDS011;28939;45.540;-122.632;2022-09-09T05:48:52;1.03;;;0.80;;
970;SDS011;28939;45.540;-122.632;2022-09-09T05:51:24;1.13;;;0.70;;
970;SDS011;28939;45.540;-122.632;2022-09-09T05:53:56;0.67;;;0.67;;
970;SDS011;28939;45.540;-122.632;2022-09-09T05:56:29;0.57;;;0.57;;
970;SDS011;28939;45.540;-122.632;2022-09-09T05:59:00;1.10;;;1.00;;
970;SDS011;28939;45.540;-122.632;2022-09-09T06:01:34;0.50;;;0.50;;
970;SDS011;28939;45.540;-122.632;2022-09-09T06:04:08;3.23;;;0.90;;
970;SDS011;28939;45.540;-122.632;2022-09-09T06:06:38;0.67;;;0.50;;
970;SDS011;28939;45.540;-122.632;2022-09-09T06:09:09;1.60;;;0.90;;
970;SDS011;28939;45.540;-122.632;2022-09-09T06:11:41;0.80;;;0.80;;
970;SDS011;28939;45.540;-122.632;2022-09-09T06:14:13;0.87;;;0.60;;
970;SDS011;28939;45.540;-122.632;2022-09-09T06:16:47;1.37;;;0.70;;
970;SDS011;28939;45.540;-122.632;2022-09-09T06:19:17;1.03;;;1.00;;
970;SDS011;28939;45.540;-122.632;2022-09-09T06:21:48;0.70;;;0.60;;
970;SDS011;28939;45.540;-122.632;2022-09-09T06:24:19;0.80;;;0.80;;
970;SDS011;28939;45.540;-122.632;2022-09-09T06:26:50;0.63;;;0.63;;
970;SDS011;28939;45.540;-122.632;2022-09-09T06:29:21;1.30;;;0.70;;
970;SDS011;28939;45.540;-122.632;2022-09-09T06:31:53;0.83;;;0.67;;
970;SDS011;28939;45.540;-122.632;2022-09-09T06:34:25;1.93;;;0.90;;
970;SDS011;28939;45.540;-122.632;2022-09-09T06:36:56;0.90;;;0.60;;
970;SDS011;28939;45.540;-122.632;2022-09-09T06:39:27;0.70;;;0.70;;
970;SDS011;28939;45.540;-122.632;2022-09-09T06:41:57;0.87;;;0.87;;
970;SDS011;28939;45.540;-122.632;2022-09-09T06:44:29;0.60;;;0.60;;
970;SDS011;28939;45.540;-122.632;2022-09-09T06:47:03;0.80;;;0.60;;
970;SDS011;28939;45.540;-122.632;2022-09-09T06:49:34;0.83;;;0.73;;
970;SDS011;28939;45.540;-122.632;2022-09-09T06:52:04;0.90;;;0.90;;
970;SDS011;28939;45.540;-122.632;2022-09-09T06:54:36;0.73;;;0.60;;
970;SDS011;28939;45.540;-122.632;2022-09-09T06:57:07;0.93;;;0.70;;
970;SDS011;28939;45.540;-122.632;2022-09-09T06:59:58;1.57;;;0.80;;
970;SDS011;28939;45.540;-122.632;2022-09-09T07:02:30;0.50;;;0.50;;
970;SDS011;28939;45.540;-122.632;2022-09-09T07:05:06;2.90;;;1.10;;
970;SDS011;28939;45.540;-122.632;2022-09-09T07:07:38;0.60;;;0.50;;
970;SDS011;28939;45.540;-122.632;2022-09-09T07:10:09;0.80;;;0.80;;
970;SDS011;28939;45.540;-122.632;2022-09-09T07:12:40;0.90;;;0.63;;
970;SDS011;28939;45.540;-122.632;2022-09-09T07:15:10;0.70;;;0.70;;
970;SDS011;28939;45.540;-122.632;2022-09-09T07:17:43;0.90;;;0.80;;
970;SDS011;28939;45.540;-122.632;2022-09-09T07:20:14;1.17;;;1.07;;
970;SDS011;28939;45.540;-122.632;2022-09-09T07:22:44;1.37;;;0.90;;
970;SDS011;28939;45.540;-122.632;2022-09-09T07:25:15;1.07;;;0.87;;
970;SDS011;28939;45.540;-122.632;2022-09-09T07:27:46;1.23;;;0.80;;
970;SDS011;28939;45.540;-122.632;2022-09-09T07:30:17;0.67;;;0.67;;
970;SDS011;28939;45.540;-122.632;2022-09-09T07:32:55;0.73;;;0.73;;
970;SDS011;28939;45.540;-122.632;2022-09-09T07:35:26;1.00;;;0.80;;
970;SDS011;28939;45.540;-122.632;2022-09-09T07:37:57;1.73;;;1.00;;
970;SDS011;28939;45.540;-122.632;2022-09-09T07:40:30;0.73;;;0.63;;
970;SDS011;28939;45.540;-122.632;2022-09-09T07:43:01;1.40;;;0.60;;
970;SDS011;28939;45.540;-122.632;2022-09-09T07:45:33;1.17;;;1.07;;
970;SDS011;28939;45.540;-122.632;2022-09-09T07:48:06;1.20;;;1.10;;
970;SDS011;28939;45.540;-122.632;2022-09-09T07:50:38;1.93;;;1.07;;
970;SDS011;28939;45.540;-122.632;2022-09-09T07:53:09;1.60;;;1.00;;
970;SDS011;28939;45.540;-122.632;2022-09-09T07:55:40;2.43;;;1.10;;
970;SDS011;28939;45.540;-122.632;2022-09-09T07:58:10;1.17;;;0.77;;
970;SDS011;28939;45.540;-122.632;2022-09-09T08:00:41;1.00;;;0.90;;
970;SDS011;28939;45.540;-122.632;2022-09-09T08:03:14;1.10;;;1.00;;
970;SDS011;28939;45.540;-122.632;2022-09-09T08:05:44;0.80;;;0.80;;
970;SDS011;28939;45.540;-122.632;2022-09-09T08:08:15;1.20;;;1.10;;
970;SDS011;28939;45.540;-122.632;2022-09-09T08:10:46;0.70;;;0.50;;
970;SDS011;28939;45.540;-122.632;2022-09-09T08:13:16;1.17;;;1.07;;
970;SDS011;28939;45.540;-122.632;2022-09-09T08:15:48;1.03;;;0.90;;
970;SDS011;28939;45.540;-122.632;2022-09-09T08:18:21;1.20;;;1.10;;
970;SDS011;28939;45.540;-122.632;2022-09-09T08:20:51;1.40;;;1.30;;
970;SDS011;28939;45.540;-122.632;2022-09-09T08:23:22;0.87;;;0.87;;
970;SDS011;28939;45.540;-122.632;2022-09-09T08:25:54;0.60;;;0.60;;
970;SDS011;28939;45.540;-122.632;2022-09-09T08:28:32;0.57;;;0.57;;
970;SDS011;28939;45.540;-122.632;2022-09-09T08:31:06;1.97;;;0.83;;
970;SDS011;28939;45.540;-122.632;2022-09-09T08:33:40;1.73;;;0.90;;
970;SDS011;28939;45.540;-122.632;2022-09-09T08:36:14;1.60;;;1.10;;
970;SDS011;28939;45.540;-122.632;2022-09-09T08:38:47;1.47;;;1.00;;
970;SDS011;28939;45.540;-122.632;2022-09-09T08:44:13;1.30;;;0.90;;
970;SDS011;28939;45.540;-122.632;2022-09-09T08:46:51;0.67;;;0.60;;
970;SDS011;28939;45.540;-122.632;2022-09-09T08:49:40;0.90;;;0.87;;
970;SDS011;28939;45.540;-122.632;2022-09-09T08:52:29;1.30;;;0.67;;
970;SDS011;28939;45.540;-122.632;2022-09-09T08:55:11;0.63;;;0.63;;
970;SDS011;28939;45.540;-122.632;2022-09-09T08:57:51;1.43;;;1.07;;
970;SDS011;28939;45.540;-122.632;2022-09-09T09:00:24;1.10;;;1.00;;
970;SDS011;28939;45.540;-122.632;2022-09-09T09:03:05;1.60;;;1.43;;
970;SDS011;28939;45.540;-122.632;2022-09-09T09:05:50;3.13;;;1.07;;
970;SDS011;28939;45.540;-122.632;2022-09-09T09:08:32;1.30;;;1.20;;
970;SDS011;28939;45.540;-122.632;2022-09-09T09:11:10;2.47;;;1.43;;
970;SDS011;28939;45.540;-122.632;2022-09-09T09:13:42;1.20;;;1.10;;
970;SDS011;28939;45.540;-122.632;2022-09-09T09:16:19;1.80;;;1.37;;
970;SDS011;28939;45.540;-122.632;2022-09-09T09:18:56;0.97;;;0.90;;
970;SDS011;28939;45.540;-122.632;2022-09-09T09:21:32;1.20;;;1.10;;
970;SDS011;28939;45.540;-122.632;2022-09-09T09:24:11;3.50;;;1.47;;
970;SDS011;28939;45.540;-122.632;2022-09-09T09:26:48;3.67;;;1.50;;
970;SDS011;28939;45.540;-122.632;2022-09-09T09:29:20;5.50;;;1.43;;
970;SDS011;28939;45.540;-122.632;2022-09-09T09:31:55;2.87;;;1.07;;
970;SDS011;28939;45.540;-122.632;2022-09-09T09:34:28;1.90;;;1.30;;
970;SDS011;28939;45.540;-122.632;2022-09-09T09:37:00;3.13;;;1.83;;
970;SDS011;28939;45.540;-122.632;2022-09-09T09:39:40;3.17;;;1.50;;
970;SDS011;28939;45.540;-122.632;2022-09-09T09:42:31;2.30;;;1.73;;
970;SDS011;28939;45.540;-122.632;2022-09-09T09:45:07;1.50;;;1.40;;
970;SDS011;28939;45.540;-122.632;2022-09-09T09:47:46;2.20;;;1.70;;
970;SDS011;28939;45.540;-122.632;2022-09-09T09:50:33;1.90;;;1.73;;
970;SDS011;28939;45.540;-122.632;2022-09-09T09:53:05;2.40;;;1.27;;
970;SDS011;28939;45.540;-122.632;2022-09-09T09:55:48;2.00;;;1.30;;
970;SDS011;28939;45.540;-122.632;2022-09-09T09:58:23;1.33;;;1.23;;
970;SDS011;28939;45.540;-122.632;2022-09-09T10:00:57;1.90;;;1.63;;
970;SDS011;28939;45.540;-122.632;2022-09-09T10:03:28;1.97;;;1.60;;
970;SDS011;28939;45.540;-122.632;2022-09-09T10:06:05;1.80;;;1.60;;
970;SDS011;28939;45.540;-122.632;2022-09-09T10:08:43;1.57;;;1.27;;
970;SDS011;28939;45.540;-122.632;2022-09-09T10:11:21;1.80;;;1.50;;
970;SDS011;28939;45.540;-122.632;2022-09-09T10:14:00;2.60;;;2.00;;
970;SDS011;28939;45.540;-122.632;2022-09-09T10:16:41;2.93;;;1.87;;
970;SDS011;28939;45.540;-122.632;2022-09-09T10:19:29;1.70;;;1.60;;
970;SDS011;28939;45.540;-122.632;2022-09-09T10:22:17;1.83;;;1.20;;
970;SDS011;28939;45.540;-122.632;2022-09-09T10:25:11;1.43;;;1.33;;
970;SDS011;28939;45.540;-122.632;2022-09-09T10:27:54;2.40;;;2.17;;
970;SDS011;28939;45.540;-122.632;2022-09-09T10:30:41;1.90;;;1.80;;
970;SDS011;28939;45.540;-122.632;2022-09-09T10:33:22;3.40;;;2.60;;
970;SDS011;28939;45.540;-122.632;2022-09-09T10:36:01;2.07;;;1.90;;
970;SDS011;28939;45.540;-122.632;2022-09-09T10:38:42;2.80;;;1.80;;
970;SDS011;28939;45.540;-122.632;2022-09-09T10:41:20;3.40;;;1.97;;
970;SDS011;28939;45.540;-122.632;2022-09-09T10:44:11;2.50;;;2.00;;
970;SDS011;28939;45.540;-122.632;2022-09-09T10:46:52;3.00;;;1.47;;
970;SDS011;28939;45.540;-122.632;2022-09-09T10:49:47;2.80;;;2.30;;
970;SDS011;28939;45.540;-122.632;2022-09-09T10:52:31;2.10;;;1.83;;
970;SDS011;28939;45.540;-122.632;2022-09-09T10:55:10;2.00;;;1.80;;
970;SDS011;28939;45.540;-122.632;2022-09-09T10:57:47;3.30;;;2.00;;
970;SDS011;28939;45.540;-122.632;2022-09-09T11:00:20;3.43;;;1.90;;
970;SDS011;28939;45.540;-122.632;2022-09-09T11:02:53;2.00;;;1.70;;
970;SDS011;28939;45.540;-122.632;2022-09-09T11:05:27;2.80;;;1.97;;
970;SDS011;28939;45.540;-122.632;2022-09-09T11:08:02;3.23;;;1.80;;
970;SDS011;28939;45.540;-122.632;2022-09-09T11:10:40;6.37;;;2.13;;
970;SDS011;28939;45.540;-122.632;2022-09-09T11:13:17;1.70;;;1.57;;
970;SDS011;28939;45.540;-122.632;2022-09-09T11:15:53;2.00;;;1.77;;
970;SDS011;28939;45.540;-122.632;2022-09-09T11:18:29;2.60;;;2.40;;
970;SDS011;28939;45.540;-122.632;2022-09-09T11:21:08;2.77;;;2.10;;
970;SDS011;28939;45.540;-122.632;2022-09-09T11:23:47;3.47;;;2.00;;
970;SDS011;28939;45.540;-122.632;2022-09-09T11:26:25;2.20;;;2.00;;
970;SDS011;28939;45.540;-122.632;2022-09-09T11:31:59;2.40;;;2.20;;
970;SDS011;28939;45.540;-122.632;2022-09-09T11:34:46;2.30;;;1.90;;
970;SDS011;28939;45.540;-122.632;2022-09-09T11:37:38;2.33;;;2.13;;
970;SDS011;28939;45.540;-122.632;2022-09-09T11:40:23;2.20;;;1.70;;
970;SDS011;28939;45.540;-122.632;2022-09-09T11:43:01;3.47;;;1.90;;
970;SDS011;28939;45.540;-122.632;2022-09-09T11:45:36;2.10;;;1.87;;
970;SDS011;28939;45.540;-122.632;2022-09-09T11:48:22;2.87;;;2.30;;
970;SDS011;28939;45.540;-122.632;2022-09-09T11:50:59;2.60;;;2.17;;
970;SDS011;28939;45.540;-122.632;2022-09-09T11:53:32;2.80;;;2.00;;
970;SDS011;28939;45.540;-122.632;2022-09-09T11:56:05;3.13;;;1.93;;
970;SDS011;28939;45.540;-122.632;2022-09-09T11:58:39;3.90;;;2.00;;
970;SDS011;28939;45.540;-122.632;2022-09-09T12:01:15;2.23;;;2.03;;
970;SDS011;28939;45.540;-122.632;2022-09-09T12:06:58;4.60;;;2.23;;
970;SDS011;28939;45.540;-122.632;2022-09-09T12:09:44;2.53;;;1.80;;
970;SDS011;28939;45.540;-122.632;2022-09-09T12:12:21;2.80;;;2.00;;
970;SDS011;28939;45.540;-122.632;2022-09-09T12:14:58;2.47;;;1.73;;
970;SDS011;28939;45.540;-122.632;2022-09-09T12:17:36;2.03;;;1.87;;
970;SDS011;28939;45.540;-122.632;2022-09-09T12:20:12;2.47;;;2.27;;
970;SDS011;28939;45.540;-122.632;2022-09-09T12:22:56;3.27;;;2.33;;
970;SDS011;28939;45.540;-122.632;2022-09-09T12:25:55;1.67;;;1.50;;
970;SDS011;28939;45.540;-122.632;2022-09-09T12:28:41;3.07;;;1.70;;
970;SDS011;28939;45.540;-122.632;2022-09-09T12:31:30;2.30;;;2.10;;
970;SDS011;28939;45.540;-122.632;2022-09-09T12:34:13;3.63;;;2.50;;
970;SDS011;28939;45.540;-122.632;2022-09-09T12:36:47;2.57;;;1.90;;
970;SDS011;28939;45.540;-122.632;2022-09-09T12:39:28;2.00;;;1.80;;
970;SDS011;28939;45.540;-122.632;2022-09-09T12:42:03;3.00;;;1.93;;
970;SDS011;28939;45.540;-122.632;2022-09-09T12:44:35;3.30;;;2.30;;
970;SDS011;28939;45.540;-122.632;2022-09-09T12:47:05;3.50;;;1.90;;
970;SDS011;28939;45.540;-122.632;2022-09-09T12:49:38;2.93;;;1.90;;
970;SDS011;28939;45.540;-122.632;2022-09-09T12:52:12;2.50;;;1.93;;
970;SDS011;28939;45.540;-122.632;2022-09-09T12:54:48;2.63;;;2.33;;
970;SDS011;28939;45.540;-122.632;2022-09-09T12:57:22;2.77;;;2.10;;
970;SDS011;28939;45.540;-122.632;2022-09-09T13:00:03;2.53;;;1.87;;
970;SDS011;28939;45.540;-122.632;2022-09-09T13:02:48;2.00;;;1.70;;
970;SDS011;28939;45.540;-122.632;2022-09-09T13:05:22;2.67;;;2.07;;
970;SDS011;28939;45.540;-122.632;2022-09-09T13:08:00;2.30;;;2.10;;
970;SDS011;28939;45.540;-122.632;2022-09-09T13:10:32;2.50;;;1.90;;
970;SDS011;28939;45.540;-122.632;2022-09-09T13:13:20;3.20;;;2.27;;
970;SDS011;28939;45.540;-122.632;2022-09-09T13:15:52;2.63;;;2.43;;
970;SDS011;28939;45.540;-122.632;2022-09-09T13:18:25;5.90;;;2.10;;
970;SDS011;28939;45.540;-122.632;2022-09-09T13:21:02;2.50;;;2.27;;
970;SDS011;28939;45.540;-122.632;2022-09-09T13:23:34;3.20;;;1.87;;
970;SDS011;28939;45.540;-122.632;2022-09-09T13:26:06;3.07;;;2.00;;
970;SDS011;28939;45.540;-122.632;2022-09-09T13:28:51;2.37;;;1.90;;
970;SDS011;28939;45.540;-122.632;2022-09-09T13:31:23;2.50;;;2.30;;
970;SDS011;28939;45.540;-122.632;2022-09-09T13:33:57;2.67;;;2.47;;
970;SDS011;28939;45.540;-122.632;2022-09-09T13:36:30;3.63;;;2.23;;
970;SDS011;28939;45.540;-122.632;2022-09-09T13:39:03;2.53;;;2.23;;
970;SDS011;28939;45.540;-122.632;2022-09-09T13:41:34;2.67;;;2.00;;
970;SDS011;28939;45.540;-122.632;2022-09-09T13:44:14;2.57;;;2.37;;
970;SDS011;28939;45.540;-122.632;2022-09-09T13:46:59;2.70;;;2.13;;
970;SDS011;28939;45.540;-122.632;2022-09-09T13:49:36;2.23;;;1.90;;
970;SDS011;28939;45.540;-122.632;2022-09-09T13:52:12;2.20;;;2.00;;
970;SDS011;28939;45.540;-122.632;2022-09-09T13:54:46;3.10;;;1.93;;
970;SDS011;28939;45.540;-122.632;2022-09-09T13:57:19;2.60;;;2.27;;
970;SDS011;28939;45.540;-122.632;2022-09-09T13:59:50;2.23;;;2.03;;
970;SDS011;28939;45.540;-122.632;2022-09-09T14:02:37;2.53;;;2.30;;
970;SDS011;28939;45.540;-122.632;2022-09-09T14:05:08;2.27;;;1.87;;
970;SDS011;28939;45.540;-122.632;2022-09-09T14:07:40;1.77;;;1.67;;
970;SDS011;28939;45.540;-122.632;2022-09-09T14:10:15;2.00;;;1.80;;
970;SDS011;28939;45.540;-122.632;2022-09-09T14:12:46;3.10;;;2.80;;
970;SDS011;28939;45.540;-122.632;2022-09-09T14:15:17;1.93;;;1.60;;
970;SDS011;28939;45.540;-122.632;2022-09-09T14:17:49;2.43;;;2.33;;
970;SDS011;28939;45.540;-122.632;2022-09-09T14:20:20;2.17;;;1.97;;
970;SDS011;28939;45.540;-122.632;2022-09-09T14:22:52;3.63;;;1.80;;
970;SDS011;28939;45.540;-122.632;2022-09-09T14:25:29;3.23;;;2.40;;
970;SDS011;28939;45.540;-122.632;2022-09-09T14:28:01;3.13;;;2.63;;
970;SDS011;28939;45.540;-122.632;2022-09-09T14:30:31;2.67;;;2.13;;
970;SDS011;28939;45.540;-122.632;2022-09-09T14:33:02;2.50;;;2.30;;
970;SDS011;28939;45.540;-122.632;2022-09-09T14:35:33;3.43;;;2.50;;
970;SDS011;28939;45.540;-122.632;2022-09-09T14:38:07;7.40;;;3.53;;
970;SDS011;28939;45.540;-122.632;2022-09-09T14:40:44;2.80;;;1.80;;
970;SDS011;28939;45.540;-122.632;2022-09-09T14:43:15;2.17;;;1.97;;
970;SDS011;28939;45.540;-122.632;2022-09-09T14:45:46;2.27;;;2.10;;
970;SDS011;28939;45.540;-122.632;2022-09-09T14:48:18;3.07;;;2.30;;
970;SDS011;28939;45.540;-122.632;2022-09-09T14:50:49;1.60;;;1.50;;
970;SDS011;28939;45.540;-122.632;2022-09-09T14:53:21;1.60;;;1.50;;
970;SDS011;28939;45.540;-122.632;2022-09-09T14:55:52;1.83;;;1.73;;
970;SDS011;28939;45.540;-122.632;2022-09-09T14:58:31;2.10;;;1.87;;
970;SDS011;28939;45.540;-122.632;2022-09-09T15:01:03;3.97;;;1.90;;
970;SDS011;28939;45.540;-122.632;2022-09-09T15:03:37;2.23;;;2.07;;
970;SDS011;28939;45.540;-122.632;2022-09-09T15:06:09;2.03;;;1.83;;
970;SDS011;28939;45.540;-122.632;2022-09-09T15:08:43;2.37;;;2.17;;
970;SDS011;28939;45.540;-122.632;2022-09-09T15:11:15;2.00;;;1.80;;
970;SDS011;28939;45.540;-122.632;2022-09-09T15:13:46;3.00;;;2.20;;
970;SDS011;28939;45.540;-122.632;2022-09-09T15:16:20;6.07;;;2.63;;
970;SDS011;28939;45.540;-122.632;2022-09-09T15:18:53;4.00;;;1.30;;
970;SDS011;28939;45.540;-122.632;2022-09-09T15:21:26;2.10;;;2.00;;
970;SDS011;28939;45.540;-122.632;2022-09-09T15:24:00;1.97;;;1.83;;
970;SDS011;28939;45.540;-122.632;2022-09-09T15:26:31;4.13;;;2.30;;
970;SDS011;28939;45.540;-122.632;2022-09-09T15:29:03;2.40;;;1.90;;